sensor_id;sensor_type;location;lat;lon;timestamp;pressure;altitude;pressure_sealevel;temperature;humidity
35798;BME280;21918;49.940;7.774;2023-09-08T20:26:43;98953.44;;;25.31;52.74
35798;BME280;21918;49.940;7.774;2023-09-08T20:29:10;98949.84;;;25.27;52.79
35798;BME280;21918;49.940;7.774;2023-09-08T20:31:37;98949.41;;;25.29;52.64
35798;BME280;21918;49.940;7.774;2023-09-08T20:34:04;98953.03;;;25.33;52.92
35798;BME280;21918;49.940;7.774;2023-09-08T20:36:31;98953.84;;;25.33;52.84
35798;BME280;21918;49.940;7.774;2023-09-08T20:38:57;98956.28;;;25.31;52.53
35798;BME280;21918;49.940;7.774;2023-09-08T20:41:24;98946.56;;;25.32;52.64
35798;BME280;21918;49.940;7.774;2023-09-08T20:43:52;98959.50;;;25.33;52.91
35798;BME280;21918;49.940;7.774;2023-09-08T20:46:18;98948.16;;;25.30;52.78
35798;BME280;21918;49.940;7.774;2023-09-08T20:48:45;98944.16;;;25.27;52.71
35798;BME280;21918;49.940;7.774;2023-09-08T20:51:12;98950.25;;;25.26;52.80
35798;BME280;21918;49.940;7.774;2023-09-08T20:53:41;98952.75;;;25.20;52.83
35798;BME280;21918;49.940;7.774;2023-09-08T20:56:09;98942.28;;;25.17;52.93
35798;BME280;21918;49.940;7.774;2023-09-08T20:58:36;98945.09;;;25.17;52.67
35798;BME280;21918;49.940;7.774;2023-09-08T21:01:04;98945.50;;;25.19;52.60
35798;BME280;21918;49.940;7.774;2023-09-08T21:03:31;98944.25;;;25.20;52.85
35798;BME280;21918;49.940;7.774;2023-09-08T21:05:57;98949.19;;;25.16;52.67
35798;BME280;21918;49.940;7.774;2023-09-08T21:08:24;98938.69;;;25.13;52.70
35798;BME280;21918;49.940;7.774;2023-09-08T21:10:54;98938.69;;;25.13;52.77
35798;BME280;21918;49.940;7.774;2023-09-08T21:13:21;98934.25;;;25.12;52.71
35798;BME280;21918;49.940;7.774;2023-09-08T21:15:48;98940.69;;;25.13;52.74
35798;BME280;21918;49.940;7.774;2023-09-08T21:18:16;98933.00;;;25.13;52.78
35798;BME280;21918;49.940;7.774;2023-09-08T21:20:42;98939.91;;;25.12;53.02
35798;BME280;21918;49.940;7.774;2023-09-08T21:23:09;98941.13;;;25.11;52.90
35798;BME280;21918;49.940;7.774;2023-09-08T21:25:37;98943.97;;;25.11;52.79
35798;BME280;21918;49.940;7.774;2023-09-08T21:28:04;98937.94;;;25.09;52.54
35798;BME280;21918;49.940;7.774;2023-09-08T21:30:31;98944.41;;;25.10;52.68
35798;BME280;21918;49.940;7.774;2023-09-08T21:32:58;98937.97;;;25.06;53.04
35798;BME280;21918;49.940;7.774;2023-09-08T21:35:26;98936.34;;;25.08;52.73
35798;BME280;21918;49.940;7.774;2023-09-08T21:37:52;98934.78;;;25.04;52.74
35798;BME280;21918;49.940;7.774;2023-09-08T21:40:19;98934.78;;;25.00;52.96
35798;BME280;21918;49.940;7.774;2023-09-08T21:42:45;98931.63;;;24.95;53.01
35798;BME280;21918;49.940;7.774;2023-09-08T21:45:12;98929.63;;;24.95;53.07
35798;BME280;21918;49.940;7.774;2023-09-08T21:47:39;98925.97;;;24.95;52.95
35798;BME280;21918;49.940;7.774;2023-09-08T21:50:06;98929.63;;;24.95;52.68
35798;BME280;21918;49.940;7.774;2023-09-08T21:52:34;98921.97;;;24.92;53.09
35798;BME280;21918;49.940;7.774;2023-09-08T21:55:00;98932.47;;;24.92;53.01
35798;BME280;21918;49.940;7.774;2023-09-08T21:57:27;98924.38;;;24.94;52.83
35798;BME280;21918;49.940;7.774;2023-09-08T21:59:54;98931.25;;;24.93;52.88
35798;BME280;21918;49.940;7.774;2023-09-08T22:02:20;98928.84;;;24.91;52.92
35798;BME280;21918;49.940;7.774;2023-09-08T22:04:47;98931.72;;;24.88;53.14
35798;BME280;21918;49.940;7.774;2023-09-08T22:07:13;98922.03;;;24.85;52.97
35798;BME280;21918;49.940;7.774;2023-09-08T22:09:41;98932.56;;;24.85;52.84
35798;BME280;21918;49.940;7.774;2023-09-08T22:12:08;98934.59;;;24.84;52.96
35798;BME280;21918;49.940;7.774;2023-09-08T22:14:35;98929.38;;;24.83;53.14
35798;BME280;21918;49.940;7.774;2023-09-08T22:17:03;98931.81;;;24.81;53.08
35798;BME280;21918;49.940;7.774;2023-09-08T22:19:29;98921.31;;;24.78;52.99
35798;BME280;21918;49.940;7.774;2023-09-08T22:21:56;98924.56;;;24.76;53.11
35798;BME280;21918;49.940;7.774;2023-09-08T22:24:23;98925.81;;;24.75;53.11
35798;BME280;21918;49.940;7.774;2023-09-08T22:26:50;98926.16;;;24.77;52.91
35798;BME280;21918;49.940;7.774;2023-09-08T22:29:17;98922.97;;;24.75;52.97
35798;BME280;21918;49.940;7.774;2023-09-08T22:31:44;98917.31;;;24.75;52.93
35798;BME280;21918;49.940;7.774;2023-09-08T22:34:10;98922.97;;;24.75;53.11
35798;BME280;21918;49.940;7.774;2023-09-08T22:36:37;98916.13;;;24.73;53.17
35798;BME280;21918;49.940;7.774;2023-09-08T22:39:03;98919.38;;;24.71;53.21
35798;BME280;21918;49.940;7.774;2023-09-08T22:41:31;98917.75;;;24.70;52.95
35798;BME280;21918;49.940;7.774;2023-09-08T22:43:59;98919.00;;;24.69;52.95
35798;BME280;21918;49.940;7.774;2023-09-08T22:46:25;98910.09;;;24.67;53.17
35798;BME280;21918;49.940;7.774;2023-09-08T22:48:52;98913.34;;;24.65;52.87
35798;BME280;21918;49.940;7.774;2023-09-08T22:51:19;98910.97;;;24.64;52.85
35798;BME280;21918;49.940;7.774;2023-09-08T22:53:45;98914.19;;;24.62;52.86
35798;BME280;21918;49.940;7.774;2023-09-08T22:56:12;98911.78;;;24.61;52.73
35798;BME280;21918;49.940;7.774;2023-09-08T22:58:39;98910.16;;;24.60;53.00
35798;BME280;21918;49.940;7.774;2023-09-08T23:01:08;98910.97;;;24.60;52.79
35798;BME280;21918;49.940;7.774;2023-09-08T23:03:34;98919.88;;;24.59;52.93
35798;BME280;21918;49.940;7.774;2023-09-08T23:06:01;98908.97;;;24.57;53.01
35798;BME280;21918;49.940;7.774;2023-09-08T23:08:27;98920.72;;;24.56;52.71
35798;BME280;21918;49.940;7.774;2023-09-08T23:10:54;98921.13;;;24.54;53.16
35798;BME280;21918;49.940;7.774;2023-09-08T23:13:21;98917.94;;;24.52;52.78
35798;BME280;21918;49.940;7.774;2023-09-08T23:15:47;98919.97;;;24.52;52.93
35798;BME280;21918;49.940;7.774;2023-09-08T23:18:16;98917.94;;;24.52;52.75
35798;BME280;21918;49.940;7.774;2023-09-08T23:20:43;98926.84;;;24.51;53.02
35798;BME280;21918;49.940;7.774;2023-09-08T23:23:10;98920.78;;;24.52;52.89
35798;BME280;21918;49.940;7.774;2023-09-08T23:25:37;98915.13;;;24.49;53.02
35798;BME280;21918;49.940;7.774;2023-09-08T23:28:04;98921.63;;;24.49;53.03
35798;BME280;21918;49.940;7.774;2023-09-08T23:30:30;98922.03;;;24.48;52.77
35798;BME280;21918;49.940;7.774;2023-09-08T23:32:57;98911.13;;;24.46;52.96
35798;BME280;21918;49.940;7.774;2023-09-08T23:35:25;98908.31;;;24.43;53.00
35798;BME280;21918;49.940;7.774;2023-09-08T23:37:51;98905.50;;;24.43;52.91
35798;BME280;21918;49.940;7.774;2023-09-08T23:40:18;98909.13;;;24.43;52.87
35798;BME280;21918;49.940;7.774;2023-09-08T23:42:46;98911.16;;;24.43;52.96
35798;BME280;21918;49.940;7.774;2023-09-08T23:45:12;98907.53;;;24.42;52.93
35798;BME280;21918;49.940;7.774;2023-09-08T23:47:39;98907.13;;;24.40;53.05
35798;BME280;21918;49.940;7.774;2023-09-08T23:50:06;98907.13;;;24.40;53.18
35798;BME280;21918;49.940;7.774;2023-09-08T23:52:35;98906.31;;;24.40;52.82
35798;BME280;21918;49.940;7.774;2023-09-08T23:55:01;98903.56;;;24.36;52.98
35798;BME280;21918;49.940;7.774;2023-09-08T23:57:28;98905.97;;;24.38;53.21
35798;BME280;21918;49.940;7.774;2023-09-08T23:59:55;98901.53;;;24.37;53.11
